AirNav   Everest Fuels
 
 990 users online  

OA16 Lost Bridge Airport
North Bend, Ohio, USA

GOING TO NORTH BEND?


FAA INFORMATION EFFECTIVE 21 MAY 2020

Location

FAA Identifier: OA16
Lat/Long: 39-09-22.0000N 084-46-54.0000W
39-09.366667N 084-46.900000W
39.1561111,-84.7816667
(estimated)
Elevation: 818 ft. / 249 m (estimated)
From city: 2 miles W of NORTH BEND, OH
Time zone: UTC -4 (UTC -5 during Standard Time)
Zip code: 45052

Airport Operations

Airport use: Private use. Permission required prior to landing
Activation date: 03/2007
Control tower: no
ARTCC: INDIANAPOLIS CENTER
FSS: DAYTON FLIGHT SERVICE STATION
Attendance: UNATNDD
Wind indicator: lighted
Segmented circle: no

Airport Communications

WX AWOS-3PT at I67 (6 nm N): 118.15 (513-569-4964)
WX ASOS at CVG (8 nm SE): PHONE 859-767-8210
WX ASOS at LUK (17 nm E): 120.25 (513-321-6291)
WX ASOS at HAO (17 nm NE): 121.425 (513-863-6137)

Nearby radio navigation aids

VOR radial/distance  VOR name  Freq  Var
CVGr341/9.2CINCINNATI VORTAC117.3004W
FLMr328/37.5FALMOUTH VOR/DME117.0004W

 
NDB name  Hdg/Dist  Freq  Var  ID
CINCINNATI273/20.533504WLUK .-.. ..- -.-
BATESVILLE122/24.925405WHLB .... .-.. -...
HOOK FIELD221/25.823904WHKF .... -.- ..-.
SPORTYS284/26.824504WPWF .--. .-- ..-.

Airport Services

Runway Information

Runway 15/33

Dimensions: 2500 x 50 ft. / 762 x 15 m
Surface: turf
RUNWAY 15  RUNWAY 33
Traffic pattern: leftleft

Airport Ownership and Management from official FAA records

Ownership: Privately-owned
Owner: THOMAS RATTERMAN
10042 MT. NEBO RD.
NORTH BEND, OH 45052
Phone 513-477-8848
Manager: THOMAS RATTERMAN
10042 MT. NEBO RD.
NORTH BEND, OH 45052
Phone 513-941-3388

Airport Operational Statistics

Aircraft based on the field: 2
Single engine airplanes: 2
    

Additional Remarks

237 FT CELL TWR 1/2 NM SE OF RY.
FOR CD CTC CINCINNATI APCH AT 859-372-6440

Instrument Procedures

There are no published instrument procedures at OA16.

Some nearby airports with instrument procedures:

I67 - Cincinnati West Airport (6 nm N)
KCVG - Cincinnati/Northern Kentucky International Airport (8 nm SE)
KLUK - Cincinnati Municipal Airport-Lunken Field (17 nm E)
KHAO - Butler County Regional Airport-Hogan Field (17 nm NE)
KOXD - Miami University Airport (21 nm N)
 
Loc | Ops | Rwys | IFR | FBO | Links
Com | Nav | Svcs | Stats | Notes
Area around OA16 (Lost Bridge Airport)
 
Road maps at: MapQuest Bing Google
 
Aerial photo
No photo
 
Sectional chart

 
Airport distance calculator
Flying to Lost Bridge Airport? Find the distance to fly.

From to OA16

Sunrise and sunset
Times for 30-May-2020
 Local
(UTC-4)
 Zulu
(UTC)
Morning civil twilight05:4509:45
Sunrise06:1610:16
Sunset20:5700:57
Evening civil twilight21:2901:29

Current date and time
Zulu (UTC)  30-May-2020 19:08:11
Local (UTC-4)  30-May-2020 15:08:11
 
METAR
KI67 
6nm N 
301855Z AUTO 36009KT 10SM BKN050 21/10 A3013 RMK AO1
KCVG 
8nm SE 
301852Z 32014KT 10SM SCT050 22/09 A3012 RMK AO2 SLP194 T02220089 $
KLUK 
17nm E 
301853Z 32011KT 10SM SCT060 23/10 A3012 RMK AO2 SLP197 T02330100
KHAO 
18nm NE 
301853Z AUTO 34007KT 10SM BKN055 21/11 A3014 RMK AO2 SLP203 T02110106
TAF
KCVG 
8nm SE 
301732Z 3018/3124 33013G17KT P6SM BKN050 FM302200 33010KT P6SM SCT050 FM310100 01004KT P6SM SKC FM311500 36007KT P6SM SCT050
KLUK 
17nm E 
301732Z 3018/3118 36007KT P6SM BKN050 FM302200 34005KT P6SM SCT050 FM310100 VRB03KT P6SM SKC TEMPO 3108/3111 4SM BR FM311500 36006KT P6SM SCT050
NOTAMs
Click for the latest NOTAMs
NOTAMs are issued by the DoD/FAA and will open in a separate window not controlled by AirNav.

 

 
 

Would you like to see your business listed on this page?

 If your business provides an interesting product or service to pilots, flight crews, aircraft, or users of the Lost Bridge Airport, you should consider listing it here.  To start the listing process, click on the button below
 
Add a business
 

Other Pages about Lost Bridge Airport

Update a link
 
Copyright © AirNav, LLC. All rights reserved. Privacy Policy  Contact